createdAt,value
2022-09-05T08:16:10.227Z,100662.88
2022-09-05T08:18:42.586Z,100658.64
2022-09-05T08:21:28.753Z,100663.48
2022-09-05T08:24:24.006Z,100654.83
2022-09-05T08:27:16.077Z,100648.77
2022-09-05T08:29:52.594Z,100641.67
2022-09-05T08:32:47.989Z,100636.41
2022-09-05T08:35:35.094Z,100634.20
2022-09-05T08:38:09.923Z,100631.98
2022-09-05T08:41:43.191Z,100626.52
2022-09-05T08:46:41.810Z,100628.50
2022-09-05T08:47:07.265Z,100631.73
2022-09-05T08:50:00.371Z,100622.98
2022-09-05T08:52:53.934Z,100624.02
2022-09-05T08:55:31.477Z,100624.62
2022-09-05T08:58:48.270Z,100613.31
2022-09-05T09:02:15.664Z,100616.20
2022-09-05T09:05:01.374Z,100612.11
2022-09-05T09:07:47.688Z,100617.16
2022-09-05T09:10:46.589Z,100606.24
2022-09-05T09:13:59.520Z,100605.94
2022-09-05T09:17:14.181Z,100611.23
2022-09-05T09:19:52.400Z,100608.94
2022-09-05T09:22:44.718Z,100602.81
2022-09-05T09:25:40.383Z,100607.41
2022-09-05T09:28:55.840Z,100605.31
2022-09-05T09:31:51.696Z,100601.78
2022-09-05T09:34:36.894Z,100610.45
2022-09-05T09:37:51.660Z,100601.39
2022-09-05T09:41:02.685Z,100605.55
2022-09-05T09:43:37.299Z,100597.80
2022-09-05T09:46:21.656Z,100598.01
2022-09-05T09:49:21.580Z,100597.81
2022-09-05T09:52:05.091Z,100595.50
2022-09-05T09:54:52.716Z,100599.46
2022-09-05T09:58:07.570Z,100596.27
2022-09-05T10:01:20.261Z,100593.09
2022-09-05T10:10:00.929Z,100584.12
2022-09-05T10:10:44.274Z,100580.71
2022-09-05T10:11:00.443Z,100590.83
2022-09-05T10:13:13.571Z,100581.88
2022-09-05T10:16:24.289Z,100570.84
2022-09-05T10:22:37.750Z,100562.27
2022-09-05T10:25:42.582Z,100547.42
2022-09-05T10:28:29.296Z,100548.55
2022-09-05T10:32:32.604Z,100544.85
2022-09-05T10:35:07.920Z,100534.09
2022-09-05T10:37:05.429Z,100529.03
2022-09-05T10:39:51.910Z,100520.25
2022-09-05T10:42:35.766Z,100518.13
2022-09-05T10:45:17.984Z,100527.12
2022-09-05T10:48:26.046Z,100523.15
2022-09-05T10:51:37.766Z,100513.84
2022-09-05T10:54:25.558Z,100516.45
2022-09-05T10:57:37.374Z,100511.91
2022-09-05T11:02:20.101Z,100507.50
2022-09-05T11:03:36.176Z,100497.36
2022-09-05T11:06:13.246Z,100500.36
2022-09-05T11:09:16.482Z,100495.42
2022-09-05T11:11:53.345Z,100500.70
2022-09-05T11:14:53.485Z,100490.12
2022-09-05T11:17:42.228Z,100492.02
2022-09-05T11:20:47.501Z,100486.98
2022-09-05T11:23:48.753Z,100483.34
2022-09-05T11:26:36.329Z,100487.23
2022-09-05T11:29:19.557Z,100479.20
2022-09-05T11:36:41.553Z,100476.27
2022-09-05T11:39:54.948Z,100464.42
2022-09-05T11:40:09.704Z,100471.05
2022-09-05T11:41:33.125Z,100462.62
2022-09-05T11:44:25.789Z,100462.30
2022-09-05T11:47:28.019Z,100467.84
2022-09-05T11:50:18.471Z,100464.43
2022-09-05T11:53:16.913Z,100456.52
2022-09-05T11:56:12.779Z,100452.36
2022-09-05T12:02:37.627Z,100451.18
2022-09-05T12:05:48.752Z,100446.98
2022-09-05T12:08:23.644Z,100446.58
2022-09-05T12:11:37.759Z,100441.58
2022-09-05T12:14:55.178Z,100437.83
2022-09-05T12:17:58.707Z,100439.81
2022-09-05T12:20:52.284Z,100430.36
2022-09-05T12:24:28.574Z,100443.97
2022-09-05T12:29:29.556Z,100433.59
2022-09-05T12:32:59.474Z,100437.16
2022-09-05T12:36:11.620Z,100425.47
2022-09-05T12:40:53.900Z,100424.06
2022-09-05T12:41:35.259Z,100418.98
2022-09-05T12:41:36.989Z,100450.96
2022-09-05T12:41:41.713Z,100430.61
2022-09-05T12:44:39.908Z,100427.03
2022-09-05T12:46:00.040Z,100420.85
2022-09-05T12:48:47.226Z,100419.59
2022-09-05T12:51:46.139Z,100409.98
2022-09-05T12:54:27.874Z,100415.94
2022-09-05T12:59:56.672Z,100424.91
2022-09-05T13:03:06.072Z,100421.95
2022-09-05T13:03:09.051Z,100411.48
2022-09-05T13:05:01.185Z,100401.88
2022-09-05T13:07:50.241Z,100398.09
2022-09-05T13:14:18.859Z,100392.50
2022-09-05T13:14:57.076Z,100399.23
2022-09-05T13:15:51.243Z,100393.39
2022-09-05T13:18:33.723Z,100392.80
2022-09-05T13:21:22.979Z,100389.95
2022-09-05T13:24:11.218Z,100397.75
2022-09-05T13:27:00.601Z,100392.69
2022-09-05T13:30:09.890Z,100394.77
2022-09-05T13:37:56.117Z,100393.75
2022-09-05T13:38:04.875Z,100393.98
2022-09-05T13:38:05.481Z,100401.76
2022-09-05T13:40:24.112Z,100405.63
2022-09-05T13:43:13.671Z,100396.11
2022-09-05T13:46:11.907Z,100396.92
2022-09-05T13:51:50.411Z,100393.83
2022-09-05T13:54:28.131Z,100397.88
2022-09-05T13:57:37.559Z,100392.13
2022-09-05T14:00:28.088Z,100392.75
2022-09-05T14:03:39.101Z,100386.85
2022-09-05T14:10:16.173Z,100383.97
2022-09-05T14:13:08.621Z,100385.73
2022-09-05T14:16:00.565Z,100384.84
2022-09-05T14:19:04.718Z,100385.28
2022-09-05T14:21:41.004Z,100387.50
2022-09-05T14:24:28.013Z,100387.05
2022-09-05T14:27:06.925Z,100385.22
2022-09-05T14:29:47.742Z,100387.88
2022-09-05T14:37:39.114Z,100383.92
2022-09-05T14:37:43.662Z,100380.84
2022-09-05T14:38:16.047Z,100379.92
2022-09-05T14:41:18.490Z,100380.26
2022-09-05T14:44:20.451Z,100387.22
2022-09-05T14:47:34.934Z,100378.70
2022-09-05T14:50:39.257Z,100379.91
2022-09-05T14:56:36.764Z,100385.81
2022-09-05T15:02:47.775Z,100383.02
2022-09-05T15:02:50.052Z,100385.96
2022-09-05T15:06:28.100Z,100391.19
2022-09-05T15:12:14.752Z,100379.70
2022-09-05T15:12:20.127Z,100373.90
2022-09-05T15:14:19.739Z,100375.66
2022-09-05T15:17:02.237Z,100372.54
2022-09-05T15:20:05.315Z,100373.82
2022-09-05T15:22:37.077Z,100370.18
2022-09-05T15:25:21.783Z,100368.30
2022-09-05T15:27:55.407Z,100373.89
2022-09-05T15:30:36.815Z,100371.53
2022-09-05T15:33:26.367Z,100369.64
2022-09-05T15:36:01.338Z,100361.55
2022-09-05T15:38:54.387Z,100362.20
2022-09-05T15:41:23.491Z,100369.13
2022-09-05T15:44:09.701Z,100364.97
2022-09-05T15:46:51.542Z,100363.88
2022-09-05T15:49:59.803Z,100370.69
2022-09-05T15:52:55.036Z,100372.64
2022-09-05T15:55:29.733Z,100376.36
2022-09-05T15:58:05.706Z,100368.12
2022-09-05T16:00:48.144Z,100368.34
2022-09-05T16:07:32.851Z,100365.91
2022-09-05T16:10:36.492Z,100371.86
2022-09-05T16:10:38.383Z,100374.27
2022-09-05T16:14:29.302Z,100380.41
2022-09-05T16:23:28.091Z,100383.52
2022-09-05T16:23:28.886Z,100374.02
2022-09-05T16:23:40.827Z,100383.23
2022-09-05T16:26:05.564Z,100385.63
2022-09-05T16:28:47.986Z,100392.81
2022-09-05T16:31:27.899Z,100392.63
2022-09-05T16:34:06.671Z,100397.34
2022-09-05T16:37:08.400Z,100398.13
2022-09-05T16:39:33.118Z,100398.97
2022-09-05T16:42:23.989Z,100397.55
2022-09-05T16:45:16.662Z,100396.71
2022-09-05T16:48:07.038Z,100400.23
2022-09-05T16:50:58.162Z,100410.84
2022-09-05T16:53:53.338Z,100414.35
2022-09-05T16:56:24.421Z,100420.03
2022-09-05T16:59:09.884Z,100425.31
2022-09-05T17:02:11.175Z,100414.30
2022-09-05T17:05:13.103Z,100416.89
2022-09-05T17:08:02.765Z,100420.47
2022-09-05T17:10:57.990Z,100428.38
2022-09-05T17:13:57.761Z,100429.27
2022-09-05T17:16:54.931Z,100429.27
2022-09-05T17:20:05.992Z,100434.09
2022-09-05T17:24:24.390Z,100429.22
2022-09-05T17:29:24.830Z,100430.03
2022-09-05T17:29:27.400Z,100433.94
2022-09-05T17:33:45.126Z,100436.91
2022-09-05T17:36:41.291Z,100442.09
2022-09-05T17:39:45.016Z,100438.91
2022-09-05T17:42:36.691Z,100452.83
2022-09-05T17:45:34.279Z,100449.14
2022-09-05T17:48:07.540Z,100444.14
2022-09-05T17:50:51.397Z,100440.52
2022-09-05T17:53:27.577Z,100445.57
2022-09-05T17:56:05.464Z,100445.57
2022-09-05T17:58:50.292Z,100448.21
2022-09-05T18:01:22.089Z,100458.66
2022-09-05T18:04:16.945Z,100493.28
2022-09-05T18:06:38.513Z,100501.08
2022-09-05T18:09:31.204Z,100508.05
2022-09-05T18:13:11.486Z,100515.39
2022-09-05T18:15:29.018Z,100506.55
2022-09-05T18:18:04.061Z,100506.30
2022-09-05T18:21:21.818Z,100511.22
2022-09-05T18:23:46.618Z,100499.88
2022-09-05T18:26:21.681Z,100507.17
2022-09-05T18:29:14.400Z,100501.59
2022-09-05T18:31:51.692Z,100513.64
2022-09-05T18:34:31.837Z,100506.88
2022-09-05T18:37:09.813Z,100501.11
2022-09-05T18:39:43.672Z,100489.50
2022-09-05T18:42:34.030Z,100487.95
2022-09-05T18:45:00.446Z,100482.03
2022-09-05T18:47:51.071Z,100482.38
2022-09-05T18:50:27.960Z,100479.73
2022-09-05T18:53:10.020Z,100481.91
2022-09-05T18:56:13.225Z,100483.50
2022-09-05T18:58:14.670Z,100494.40
2022-09-05T19:00:49.657Z,100504.34
2022-09-05T19:03:33.911Z,100504.68
2022-09-05T19:06:36.498Z,100502.41
2022-09-05T19:09:02.482Z,100494.14
2022-09-05T19:12:10.861Z,100494.67
2022-09-05T19:14:48.560Z,100495.84
2022-09-05T19:17:37.867Z,100482.72
2022-09-05T19:20:28.792Z,100482.82
2022-09-05T19:23:11.237Z,100485.75
2022-09-05T19:25:45.484Z,100489.06
2022-09-05T19:36:54.261Z,100493.04
2022-09-05T19:36:56.791Z,100485.78
2022-09-05T19:36:58.356Z,100486.23
2022-09-05T19:37:29.325Z,100482.75
2022-09-05T19:44:41.347Z,100493.88
2022-09-05T19:47:25.970Z,100492.05
2022-09-05T19:47:57.627Z,100494.60
2022-09-05T19:50:15.336Z,100496.53
2022-09-05T19:52:56.040Z,100490.38
2022-09-05T19:55:29.208Z,100486.97
2022-09-05T19:58:19.207Z,100490.09
2022-09-05T20:00:40.600Z,100491.77
2022-09-05T20:03:13.694Z,100488.64
2022-09-05T20:05:49.627Z,100488.58
2022-09-05T20:08:36.333Z,100478.35
2022-09-05T20:11:09.791Z,100473.48
2022-09-05T20:13:43.437Z,100467.34
2022-09-05T20:16:17.359Z,100472.95
2022-09-05T20:18:50.424Z,100468.38
2022-09-05T20:21:33.155Z,100467.42
2022-09-05T20:24:06.633Z,100468.11
2022-09-05T20:26:39.854Z,100465.20
2022-09-05T20:29:15.520Z,100465.42
2022-09-05T20:31:48.394Z,100455.62
2022-09-05T20:35:38.053Z,100455.48
2022-09-05T20:43:08.643Z,100460.10
2022-09-05T20:43:27.819Z,100456.52
2022-09-05T20:43:29.180Z,100443.03
2022-09-05T20:45:08.846Z,100438.34
2022-09-05T20:54:08.262Z,100432.23
2022-09-05T20:54:15.416Z,100433.55
2022-09-05T20:54:17.182Z,100431.27
2022-09-05T20:55:42.864Z,100432.94
2022-09-05T20:58:31.515Z,100433.27
2022-09-05T21:01:21.210Z,100436.32
2022-09-05T21:04:03.682Z,100440.87
2022-09-05T21:06:40.876Z,100437.43
2022-09-05T21:09:24.901Z,100437.57
2022-09-05T21:11:59.178Z,100440.27
2022-09-05T21:14:32.709Z,100432.14
2022-09-05T21:17:15.243Z,100424.86
2022-09-05T21:19:41.826Z,100428.66
2022-09-05T21:22:24.547Z,100424.72
2022-09-05T21:25:20.443Z,100419.82
2022-09-05T21:28:10.051Z,100420.00
2022-09-05T21:30:46.311Z,100421.05
2022-09-05T21:33:23.708Z,100411.65
2022-09-05T21:36:04.442Z,100411.50
2022-09-05T21:38:43.930Z,100408.23
2022-09-05T21:41:18.313Z,100402.38
2022-09-05T21:47:42.445Z,100404.06
2022-09-05T21:47:43.102Z,100407.87
2022-09-05T21:49:03.488Z,100401.78
2022-09-05T21:51:36.708Z,100398.59
2022-09-05T21:59:14.322Z,100400.57
2022-09-05T21:59:21.315Z,100392.83
2022-09-05T21:59:41.503Z,100391.21
2022-09-05T22:02:08.910Z,100386.44
2022-09-05T22:04:42.157Z,100395.02
2022-09-05T22:07:27.357Z,100396.63
2022-09-05T22:09:53.540Z,100405.34
2022-09-05T22:12:30.180Z,100404.69
2022-09-05T22:15:11.708Z,100392.89
2022-09-05T22:17:42.449Z,100402.64
2022-09-05T22:20:20.168Z,100404.03
2022-09-05T22:22:56.390Z,100401.06
2022-09-05T22:25:31.326Z,100407.77
2022-09-05T22:28:35.476Z,100408.34
2022-09-05T22:31:08.963Z,100402.07
2022-09-05T22:33:42.016Z,100408.05
2022-09-05T22:36:15.113Z,100407.97
2022-09-05T22:38:48.284Z,100409.94
2022-09-05T22:41:29.923Z,100419.45
2022-09-05T22:43:57.069Z,100417.02
2022-09-05T22:46:31.095Z,100415.48
2022-09-05T22:49:04.218Z,100413.20
2022-09-05T22:51:37.210Z,100409.50
2022-09-05T22:54:10.292Z,100416.48
2022-09-05T22:56:43.587Z,100413.78
2022-09-05T22:59:17.292Z,100412.20
2022-09-05T23:01:51.522Z,100408.34
2022-09-05T23:04:24.348Z,100414.59
2022-09-05T23:06:58.002Z,100416.29
2022-09-05T23:09:31.186Z,100419.25
2022-09-05T23:12:07.555Z,100421.88
2022-09-05T23:14:40.338Z,100429.16
2022-09-05T23:17:15.300Z,100433.44
2022-09-05T23:19:48.055Z,100432.05
2022-09-05T23:22:21.244Z,100432.47
2022-09-05T23:24:54.267Z,100426.64
2022-09-05T23:27:27.129Z,100440.59
2022-09-05T23:30:00.409Z,100432.06
2022-09-05T23:32:34.097Z,100431.30
2022-09-05T23:35:07.679Z,100429.36
2022-09-05T23:37:44.281Z,100432.87
2022-09-05T23:40:22.105Z,100431.98
2022-09-05T23:42:57.668Z,100435.06
2022-09-05T23:45:31.633Z,100429.09
2022-09-05T23:48:05.723Z,100430.41
2022-09-05T23:50:38.632Z,100424.50
2022-09-05T23:53:11.708Z,100426.97
2022-09-05T23:55:45.107Z,100428.53
2022-09-05T23:58:18.326Z,100421.74
